createdAt,value
2022-08-21T00:00:44.215Z,3.10
2022-08-21T00:03:14.896Z,3.45
2022-08-21T00:05:51.227Z,3.08
2022-08-21T00:08:22.853Z,2.70
2022-08-21T00:10:52.049Z,2.72
2022-08-21T00:13:21.452Z,3.08
2022-08-21T00:15:50.672Z,2.88
2022-08-21T00:18:19.170Z,3.08
2022-08-21T00:20:49.998Z,2.95
2022-08-21T00:23:18.587Z,2.72
2022-08-21T00:25:46.827Z,3.03
2022-08-21T00:28:15.939Z,3.28
2022-08-21T00:30:44.825Z,3.83
2022-08-21T00:33:14.226Z,3.88
2022-08-21T00:35:44.627Z,3.22
2022-08-21T00:38:14.447Z,3.38
2022-08-21T00:40:50.216Z,3.50
2022-08-21T00:43:22.131Z,3.28
2022-08-21T00:45:50.917Z,3.10
2022-08-21T00:48:19.273Z,2.90
2022-08-21T00:50:52.878Z,2.92
2022-08-21T00:53:22.383Z,2.85
2022-08-21T00:55:51.386Z,3.10
2022-08-21T00:58:20.730Z,2.55
2022-08-21T01:00:51.368Z,3.92
2022-08-21T01:03:23.765Z,3.63
2022-08-21T01:05:52.668Z,3.67
2022-08-21T01:08:24.217Z,3.45
2022-08-21T01:10:55.239Z,3.22
2022-08-21T01:13:28.587Z,3.17
2022-08-21T01:16:00.318Z,2.88
2022-08-21T01:18:29.756Z,3.50
2022-08-21T01:21:09.779Z,3.25
2022-08-21T01:23:46.687Z,3.30
2022-08-21T01:26:17.609Z,3.15
2022-08-21T01:28:52.916Z,3.20
2022-08-21T01:31:27.337Z,4.07
2022-08-21T01:33:59.258Z,3.63
2022-08-21T01:36:30.952Z,3.58
2022-08-21T01:39:02.050Z,3.10
2022-08-21T01:41:33.357Z,3.30
2022-08-21T01:44:06.430Z,3.00
2022-08-21T01:46:35.385Z,3.28
2022-08-21T01:49:06.159Z,2.88
2022-08-21T01:51:36.163Z,3.30
2022-08-21T01:54:04.312Z,2.97
2022-08-21T01:56:39.653Z,3.00
2022-08-21T01:59:09.086Z,3.40
2022-08-21T02:01:38.224Z,3.45
2022-08-21T02:04:07.260Z,3.40
2022-08-21T02:06:38.481Z,3.13
2022-08-21T02:09:08.674Z,3.25
2022-08-21T02:11:37.774Z,3.70
2022-08-21T02:14:09.665Z,3.60
2022-08-21T02:16:38.299Z,3.47
2022-08-21T02:19:06.930Z,3.20
2022-08-21T02:21:34.969Z,2.95
2022-08-21T02:24:07.844Z,3.75
2022-08-21T02:29:07.118Z,3.17
2022-08-21T02:31:36.865Z,3.42
2022-08-21T02:34:05.526Z,4.00
2022-08-21T02:36:35.303Z,3.72
2022-08-21T02:39:08.404Z,3.75
2022-08-21T02:41:40.006Z,3.35
2022-08-21T02:44:11.336Z,4.13
2022-08-21T02:46:42.722Z,3.92
2022-08-21T02:49:14.955Z,3.65
2022-08-21T02:51:44.688Z,4.38
2022-08-21T02:54:15.500Z,4.35
2022-08-21T02:56:45.487Z,3.70
2022-08-21T02:59:15.525Z,5.32
2022-08-21T03:01:45.232Z,3.80
2022-08-21T03:04:16.314Z,4.40
2022-08-21T03:06:47.600Z,4.45
2022-08-21T03:09:18.055Z,4.22
2022-08-21T03:11:47.888Z,4.50
2022-08-21T03:14:16.994Z,4.65
2022-08-21T03:16:48.317Z,4.00
2022-08-21T03:19:19.050Z,4.53
2022-08-21T03:21:47.670Z,4.07
2022-08-21T03:24:17.395Z,4.18
2022-08-21T03:26:48.744Z,3.85
2022-08-21T03:29:17.075Z,3.70
2022-08-21T03:31:45.628Z,4.00
2022-08-21T03:34:13.715Z,3.95
2022-08-21T03:36:41.692Z,4.88
2022-08-21T03:39:09.898Z,4.40
2022-08-21T03:41:39.269Z,4.68
2022-08-21T03:44:07.290Z,4.88
2022-08-21T03:46:35.903Z,3.97
2022-08-21T03:49:04.473Z,4.03
2022-08-21T03:51:34.715Z,4.05
2022-08-21T03:54:03.422Z,4.47
2022-08-21T03:56:32.009Z,4.15
2022-08-21T03:59:03.534Z,4.85
2022-08-21T04:01:32.015Z,4.45
2022-08-21T04:04:00.774Z,4.28
2022-08-21T04:06:28.845Z,5.18
2022-08-21T04:08:56.896Z,4.30
2022-08-21T04:11:25.010Z,4.50
2022-08-21T04:13:53.239Z,5.03
2022-08-21T04:16:22.588Z,4.47
2022-08-21T04:18:53.392Z,5.25
2022-08-21T04:21:24.581Z,4.60
2022-08-21T04:23:56.583Z,4.40
2022-08-21T04:26:26.885Z,4.65
2022-08-21T04:28:59.441Z,4.45
2022-08-21T04:31:30.152Z,5.00
2022-08-21T04:34:01.414Z,4.78
2022-08-21T04:36:32.000Z,4.47
2022-08-21T04:39:03.610Z,4.43
2022-08-21T04:41:33.866Z,4.43
2022-08-21T04:44:02.847Z,4.88
2022-08-21T04:46:33.880Z,4.88
2022-08-21T04:49:03.708Z,4.25
2022-08-21T04:51:36.853Z,4.38
2022-08-21T04:54:11.502Z,4.63
2022-08-21T04:56:44.569Z,4.63
2022-08-21T04:59:17.798Z,4.55
2022-08-21T05:01:50.424Z,4.73
2022-08-21T05:04:26.272Z,4.15
2022-08-21T05:07:02.135Z,4.57
2022-08-21T05:09:34.931Z,4.07
2022-08-21T05:12:05.298Z,4.53
2022-08-21T05:14:34.237Z,5.05
2022-08-21T05:17:03.968Z,4.50
2022-08-21T05:19:32.442Z,4.85
2022-08-21T05:22:00.684Z,4.93
2022-08-21T05:24:29.124Z,4.28
2022-08-21T05:26:57.303Z,4.35
2022-08-21T05:29:25.534Z,5.15
2022-08-21T05:31:53.705Z,4.40
2022-08-21T05:34:24.783Z,4.45
2022-08-21T05:36:53.023Z,3.83
2022-08-21T05:39:20.975Z,4.65
2022-08-21T05:41:50.318Z,5.07
2022-08-21T05:44:18.839Z,4.55
2022-08-21T05:46:48.657Z,4.00
2022-08-21T05:49:16.665Z,4.20
2022-08-21T05:51:46.130Z,4.68
2022-08-21T05:54:14.415Z,4.45
2022-08-21T05:56:45.647Z,5.13
2022-08-21T05:59:14.335Z,4.82
2022-08-21T06:01:43.061Z,4.90
2022-08-21T06:04:11.698Z,4.53
2022-08-21T06:06:40.216Z,4.93
2022-08-21T06:09:09.655Z,4.60
2022-08-21T06:11:38.021Z,4.05
2022-08-21T06:14:07.413Z,4.80
2022-08-21T06:16:35.485Z,4.63
2022-08-21T06:19:03.862Z,4.85
2022-08-21T06:21:33.884Z,4.35
2022-08-21T06:24:02.427Z,4.50
2022-08-21T06:26:33.191Z,4.85
2022-08-21T06:29:03.053Z,4.20
2022-08-21T06:31:32.264Z,4.38
2022-08-21T06:34:02.354Z,3.80
2022-08-21T06:36:32.249Z,6.72
2022-08-21T06:39:02.289Z,4.22
2022-08-21T06:41:47.199Z,4.43
2022-08-21T06:44:19.055Z,3.95
2022-08-21T06:46:48.444Z,4.20
2022-08-21T06:49:21.637Z,4.07
2022-08-21T06:51:50.924Z,4.55
2022-08-21T06:54:20.076Z,4.22
2022-08-21T06:56:49.971Z,3.45
2022-08-21T06:59:18.028Z,3.70
2022-08-21T07:01:47.469Z,3.58
2022-08-21T07:04:16.104Z,3.20
2022-08-21T07:06:44.179Z,3.35
2022-08-21T07:09:14.942Z,3.40
2022-08-21T07:11:47.730Z,3.47
2022-08-21T07:14:20.452Z,3.67
2022-08-21T07:16:52.652Z,3.20
2022-08-21T07:19:21.426Z,2.95
2022-08-21T07:21:49.792Z,3.35
2022-08-21T07:24:17.896Z,2.95
2022-08-21T07:26:45.871Z,2.63
2022-08-21T07:29:13.883Z,3.08
2022-08-21T07:31:43.554Z,2.50
2022-08-21T07:34:11.622Z,2.35
2022-08-21T07:36:39.735Z,2.65
2022-08-21T07:39:08.875Z,2.95
2022-08-21T07:41:38.738Z,3.67
2022-08-21T07:44:06.800Z,2.10
2022-08-21T07:46:35.021Z,2.78
2022-08-21T07:49:05.726Z,1.95
2022-08-21T07:51:34.649Z,2.42
2022-08-21T07:54:03.748Z,2.38
2022-08-21T07:56:34.168Z,2.30
2022-08-21T07:59:05.481Z,2.35
2022-08-21T08:01:37.218Z,2.17
2022-08-21T08:04:08.006Z,2.40
2022-08-21T08:06:38.414Z,3.00
2022-08-21T08:09:09.125Z,3.20
2022-08-21T08:11:41.522Z,2.22
2022-08-21T08:14:10.670Z,2.60
2022-08-21T08:16:38.889Z,2.40
2022-08-21T08:19:10.131Z,2.40
2022-08-21T08:21:39.689Z,2.47
2022-08-21T08:24:19.184Z,2.72
2022-08-21T08:26:53.790Z,2.65
2022-08-21T08:29:24.675Z,2.53
2022-08-21T08:31:54.855Z,2.60
2022-08-21T08:34:25.673Z,2.35
2022-08-21T08:36:59.506Z,2.85
2022-08-21T08:39:35.040Z,2.47
2022-08-21T08:42:32.200Z,3.75
2022-08-21T08:45:07.226Z,2.90
2022-08-21T08:47:40.381Z,3.10
2022-08-21T08:50:18.775Z,3.90
2022-08-21T08:52:59.097Z,3.30
2022-08-21T08:55:34.884Z,3.00
2022-08-21T08:58:05.292Z,3.22
2022-08-21T09:00:35.815Z,2.78
2022-08-21T09:03:06.201Z,3.90
2022-08-21T09:05:44.067Z,3.10
2022-08-21T09:08:50.456Z,3.38
2022-08-21T09:11:31.007Z,2.63
2022-08-21T09:14:13.481Z,4.07
2022-08-21T09:16:53.891Z,3.53
2022-08-21T09:19:38.539Z,3.47
2022-08-21T09:22:17.524Z,3.15
2022-08-21T09:24:54.602Z,2.40
2022-08-21T09:27:24.378Z,2.92
2022-08-21T09:29:55.951Z,3.35
2022-08-21T09:32:37.439Z,2.35
2022-08-21T09:35:09.841Z,3.42
2022-08-21T09:37:53.754Z,3.17
2022-08-21T09:40:40.811Z,2.92
2022-08-21T09:43:19.534Z,3.22
2022-08-21T09:45:49.593Z,2.83
2022-08-21T09:48:21.406Z,2.42
2022-08-21T09:50:54.401Z,3.08
2022-08-21T09:53:26.612Z,2.70
2022-08-21T09:56:14.490Z,2.30
2022-08-21T09:58:45.618Z,2.15
2022-08-21T10:01:17.987Z,2.60
2022-08-21T10:03:47.258Z,2.20
2022-08-21T10:06:24.905Z,3.17
2022-08-21T10:09:06.638Z,2.50
2022-08-21T10:11:35.448Z,2.45
2022-08-21T10:14:13.905Z,2.40
2022-08-21T10:16:55.029Z,2.28
2022-08-21T10:19:33.096Z,2.75
2022-08-21T10:22:09.839Z,3.15
2022-08-21T10:24:49.891Z,2.75
2022-08-21T10:27:29.071Z,2.70
2022-08-21T10:30:01.849Z,2.60
2022-08-21T10:32:42.710Z,2.50
2022-08-21T10:35:15.268Z,2.53
2022-08-21T10:38:05.799Z,2.20
2022-08-21T10:40:42.869Z,2.10
2022-08-21T10:43:26.722Z,2.25
2022-08-21T10:46:05.235Z,2.55
2022-08-21T10:48:39.065Z,2.40
2022-08-21T10:51:14.872Z,2.72
2022-08-21T10:54:05.617Z,2.05
2022-08-21T10:56:40.493Z,2.50
2022-08-21T10:59:29.155Z,2.70
2022-08-21T11:02:02.959Z,2.33
2022-08-21T11:04:49.954Z,2.13
2022-08-21T11:07:31.743Z,2.25
2022-08-21T11:10:09.320Z,2.33
2022-08-21T11:12:44.727Z,2.78
2022-08-21T11:15:29.649Z,3.05
2022-08-21T11:18:11.750Z,3.17
2022-08-21T11:20:45.736Z,2.50
2022-08-21T11:23:22.721Z,2.40
2022-08-21T11:25:57.493Z,2.70
2022-08-21T11:28:35.276Z,2.67
2022-08-21T11:31:17.064Z,3.42
2022-08-21T11:34:00.370Z,2.33
2022-08-21T11:36:38.933Z,2.28
2022-08-21T11:39:18.803Z,2.20
2022-08-21T11:41:55.414Z,2.20
2022-08-21T11:44:40.138Z,2.22
2022-08-21T11:47:18.270Z,2.38
2022-08-21T11:49:59.303Z,2.42
2022-08-21T11:52:35.588Z,2.78
2022-08-21T11:55:10.847Z,2.30
2022-08-21T11:57:49.385Z,2.00
2022-08-21T12:00:26.806Z,2.10
2022-08-21T12:03:01.555Z,2.15
2022-08-21T12:05:37.053Z,2.20
2022-08-21T12:08:13.553Z,2.40
2022-08-21T12:10:45.259Z,2.60
2022-08-21T12:13:39.784Z,2.58
2022-08-21T12:16:15.559Z,2.45
2022-08-21T12:18:46.252Z,2.25
2022-08-21T12:21:28.916Z,2.50
2022-08-21T12:24:18.601Z,2.40
2022-08-21T12:26:55.989Z,2.10
2022-08-21T12:29:27.956Z,2.00
2022-08-21T12:32:01.973Z,2.67
2022-08-21T12:34:37.235Z,2.10
2022-08-21T12:37:18.646Z,1.90
2022-08-21T12:39:53.218Z,2.13
2022-08-21T12:42:28.915Z,2.08
2022-08-21T12:45:06.117Z,2.28
2022-08-21T12:47:49.965Z,3.55
2022-08-21T12:50:22.592Z,2.88
2022-08-21T12:53:01.352Z,1.77
2022-08-21T12:55:34.612Z,1.83
2022-08-21T12:58:03.483Z,2.00
2022-08-21T13:00:32.412Z,2.20
2022-08-21T13:03:05.112Z,2.03
2022-08-21T13:05:37.395Z,1.85
2022-08-21T13:08:09.004Z,1.75
2022-08-21T13:10:39.813Z,1.65
2022-08-21T13:13:25.708Z,1.85
2022-08-21T13:16:03.242Z,2.20
2022-08-21T13:18:37.290Z,1.90
2022-08-21T13:21:08.723Z,1.98
2022-08-21T13:23:37.234Z,1.92
2022-08-21T13:26:18.564Z,2.20
2022-08-21T13:28:49.186Z,1.90
2022-08-21T13:31:22.670Z,2.05
2022-08-21T13:33:53.176Z,1.92
2022-08-21T13:36:27.219Z,1.85
2022-08-21T13:38:57.549Z,1.90
2022-08-21T13:41:30.819Z,1.58
2022-08-21T13:44:05.767Z,1.90
2022-08-21T13:46:39.190Z,1.60
2022-08-21T13:49:13.180Z,1.67
2022-08-21T13:51:45.510Z,1.90
2022-08-21T13:54:29.577Z,1.88
2022-08-21T13:56:58.978Z,2.00
2022-08-21T13:59:37.558Z,2.47
2022-08-21T14:02:16.849Z,1.58
2022-08-21T14:04:56.774Z,1.95
2022-08-21T14:07:33.885Z,1.50
2022-08-21T14:10:07.554Z,1.75
2022-08-21T14:12:43.495Z,2.55
2022-08-21T14:15:16.483Z,2.33
2022-08-21T14:17:47.995Z,1.92
2022-08-21T14:20:32.906Z,1.70
2022-08-21T14:23:03.511Z,1.65
2022-08-21T14:25:40.830Z,1.85
2022-08-21T14:28:23.428Z,2.17
2022-08-21T14:30:59.176Z,2.00
2022-08-21T14:33:35.973Z,2.08
2022-08-21T14:36:09.008Z,1.85
2022-08-21T14:38:42.574Z,1.90
2022-08-21T14:41:19.635Z,1.70
2022-08-21T14:44:04.035Z,1.80
2022-08-21T14:46:55.667Z,2.22
2022-08-21T14:49:28.999Z,2.10
2022-08-21T14:51:59.983Z,1.90
2022-08-21T14:54:31.241Z,2.17
2022-08-21T14:57:03.643Z,3.47
2022-08-21T14:59:33.958Z,3.80
2022-08-21T15:02:05.643Z,2.58
2022-08-21T15:04:35.032Z,2.58
2022-08-21T15:07:05.997Z,2.25
2022-08-21T15:09:36.645Z,2.05
2022-08-21T15:12:08.518Z,1.85
2022-08-21T15:14:42.682Z,1.52
2022-08-21T15:17:13.502Z,2.03
2022-08-21T15:19:42.589Z,2.30
2022-08-21T15:22:18.683Z,1.40
2022-08-21T15:24:50.493Z,1.77
2022-08-21T15:27:20.861Z,1.70
2022-08-21T15:29:51.568Z,1.95
2022-08-21T15:32:25.340Z,1.83
2022-08-21T15:34:56.196Z,2.78
2022-08-21T15:37:27.963Z,1.50
2022-08-21T15:39:58.101Z,2.25
2022-08-21T15:42:29.625Z,2.05
2022-08-21T15:45:00.299Z,1.83
2022-08-21T15:47:34.889Z,2.58
2022-08-21T15:50:08.929Z,2.03
2022-08-21T15:52:42.025Z,2.20
2022-08-21T15:55:12.108Z,1.85
2022-08-21T15:57:57.449Z,1.77
2022-08-21T16:00:29.231Z,1.80
2022-08-21T16:03:02.291Z,2.63
2022-08-21T16:05:31.693Z,1.80
2022-08-21T16:08:03.249Z,1.90
2022-08-21T16:10:32.372Z,2.20
2022-08-21T16:13:06.908Z,1.77
2022-08-21T16:15:36.434Z,1.92
2022-08-21T16:18:08.441Z,2.42
2022-08-21T16:20:39.419Z,2.28
2022-08-21T16:23:11.370Z,1.98
2022-08-21T16:25:43.445Z,1.90
2022-08-21T16:28:16.142Z,2.33
2022-08-21T16:30:48.981Z,1.95
2022-08-21T16:33:28.150Z,2.28
2022-08-21T16:35:56.658Z,1.92
2022-08-21T16:38:29.612Z,2.05
2022-08-21T16:43:30.868Z,2.92
2022-08-21T16:46:00.557Z,1.83
2022-08-21T16:48:31.619Z,2.00
2022-08-21T16:51:02.949Z,2.58
2022-08-21T16:53:36.360Z,2.10
2022-08-21T16:56:08.066Z,1.73
2022-08-21T16:58:44.456Z,2.10
2022-08-21T17:01:18.179Z,2.28
2022-08-21T17:03:51.791Z,1.80
2022-08-21T17:06:22.612Z,2.40
2022-08-21T17:09:01.245Z,2.00
2022-08-21T17:11:37.901Z,2.80
2022-08-21T17:14:12.886Z,2.17
2022-08-21T17:16:43.451Z,1.85
2022-08-21T17:19:13.440Z,2.70
2022-08-21T17:21:42.168Z,1.83
2022-08-21T17:24:12.953Z,2.28
2022-08-21T17:26:41.473Z,2.08
2022-08-21T17:29:12.545Z,2.58
2022-08-21T17:31:42.509Z,1.90
2022-08-21T17:34:11.563Z,2.20
2022-08-21T17:36:39.762Z,2.20
2022-08-21T17:39:08.064Z,2.40
2022-08-21T17:41:37.706Z,2.20
2022-08-21T17:44:09.487Z,2.03
2022-08-21T17:46:38.945Z,2.00
2022-08-21T17:49:09.897Z,2.90
2022-08-21T17:51:38.056Z,1.90
2022-08-21T17:54:06.578Z,2.65
2022-08-21T17:56:38.923Z,2.08
2022-08-21T17:59:08.159Z,2.05
2022-08-21T18:01:40.018Z,1.73
2022-08-21T18:04:08.071Z,1.90
2022-08-21T18:06:36.470Z,1.90
2022-08-21T18:09:06.121Z,2.28
2022-08-21T18:11:35.824Z,2.38
2022-08-21T18:14:07.855Z,2.28
2022-08-21T18:16:37.953Z,3.15
2022-08-21T18:19:09.814Z,2.50
2022-08-21T18:21:38.022Z,2.05
2022-08-21T18:24:07.530Z,2.65
2022-08-21T18:26:38.533Z,2.83
2022-08-21T18:29:12.597Z,2.58
2022-08-21T18:31:43.612Z,2.40
2022-08-21T18:34:22.608Z,2.72
2022-08-21T18:36:54.938Z,3.05
2022-08-21T18:42:11.571Z,3.08
2022-08-21T18:44:46.261Z,4.07
2022-08-21T18:47:22.080Z,3.17
2022-08-21T18:49:51.617Z,2.80
2022-08-21T18:52:20.844Z,2.88
2022-08-21T18:54:50.581Z,3.28
2022-08-21T18:57:21.314Z,2.92
2022-08-21T18:59:52.667Z,3.40
2022-08-21T19:02:21.547Z,2.72
2022-08-21T19:04:52.154Z,2.90
2022-08-21T19:07:23.750Z,3.38
2022-08-21T19:10:24.575Z,3.22
2022-08-21T19:12:45.544Z,3.10
2022-08-21T19:15:19.911Z,3.08
2022-08-21T19:17:50.802Z,2.97
2022-08-21T19:20:26.538Z,4.00
2022-08-21T19:22:57.207Z,2.60
2022-08-21T19:25:33.638Z,3.30
2022-08-21T19:28:11.210Z,2.78
2022-08-21T19:33:37.948Z,3.08
2022-08-21T19:36:11.871Z,3.95
2022-08-21T19:38:42.434Z,2.60
2022-08-21T19:41:16.337Z,3.63
2022-08-21T19:43:50.326Z,3.70
2022-08-21T19:46:29.579Z,3.72
2022-08-21T19:49:00.677Z,3.42
2022-08-21T19:51:31.936Z,3.38
2022-08-21T19:54:02.927Z,3.72
2022-08-21T19:56:36.531Z,3.05
2022-08-21T19:59:09.337Z,3.80
2022-08-21T20:01:41.592Z,3.08
2022-08-21T20:04:19.251Z,3.07
2022-08-21T20:06:51.955Z,3.50
2022-08-21T20:09:24.927Z,4.43
2022-08-21T20:11:56.060Z,3.42
2022-08-21T20:14:30.804Z,3.97
2022-08-21T20:17:10.557Z,3.20
2022-08-21T20:19:41.104Z,3.20
2022-08-21T20:22:09.883Z,3.35
2022-08-21T20:24:37.913Z,3.85
2022-08-21T20:27:06.516Z,3.55
2022-08-21T20:29:39.162Z,3.13
2022-08-21T20:34:59.315Z,3.40
2022-08-21T20:37:36.187Z,2.92
2022-08-21T20:40:10.814Z,3.15
2022-08-21T20:42:40.356Z,3.72
2022-08-21T20:45:10.208Z,3.30
2022-08-21T20:47:40.311Z,3.47
2022-08-21T20:50:14.289Z,3.22
2022-08-21T20:52:43.013Z,2.60
2022-08-21T20:55:14.904Z,3.70
2022-08-21T20:57:50.890Z,3.17
2022-08-21T21:00:22.378Z,3.08
2022-08-21T21:03:00.949Z,3.40
2022-08-21T21:05:37.578Z,2.85
2022-08-21T21:08:17.958Z,3.00
2022-08-21T21:10:53.384Z,3.33
2022-08-21T21:13:31.702Z,2.85
2022-08-21T21:16:05.004Z,3.22
2022-08-21T21:21:33.368Z,3.25
2022-08-21T21:24:08.375Z,3.22
2022-08-21T21:26:46.125Z,3.58
2022-08-21T21:29:22.529Z,3.25
2022-08-21T21:31:54.818Z,2.50
2022-08-21T21:34:28.104Z,2.90
2022-08-21T21:37:03.650Z,3.35
2022-08-21T21:39:38.584Z,2.88
2022-08-21T21:42:17.496Z,3.70
2022-08-21T21:45:14.416Z,3.55
2022-08-21T21:48:00.337Z,3.35
2022-08-21T21:50:46.375Z,3.22
2022-08-21T21:53:33.682Z,3.10
2022-08-21T21:56:16.775Z,3.08
2022-08-21T21:59:23.156Z,2.97
2022-08-21T22:01:59.902Z,3.08
2022-08-21T22:04:51.110Z,3.00
2022-08-21T22:07:32.200Z,3.00
2022-08-21T22:10:19.888Z,3.50
2022-08-21T22:13:10.569Z,3.00
2022-08-21T22:15:41.324Z,3.95
2022-08-21T22:18:12.428Z,3.20
2022-08-21T22:20:47.116Z,3.38
2022-08-21T22:23:18.824Z,3.83
2022-08-21T22:25:51.438Z,3.20
2022-08-21T22:28:25.797Z,3.03
2022-08-21T22:30:57.219Z,3.50
2022-08-21T22:33:27.958Z,3.28
2022-08-21T22:35:58.893Z,3.10
2022-08-21T22:38:36.940Z,3.65
2022-08-21T22:41:21.554Z,3.70
2022-08-21T22:43:55.883Z,3.60
2022-08-21T22:46:32.721Z,4.00
2022-08-21T22:49:09.162Z,5.07
2022-08-21T22:51:40.701Z,4.07
2022-08-21T22:54:21.849Z,5.10
2022-08-21T22:57:01.441Z,4.00
2022-08-21T22:59:34.878Z,4.45
2022-08-21T23:02:07.780Z,4.47
2022-08-21T23:04:48.475Z,3.55
2022-08-21T23:07:34.057Z,4.32
2022-08-21T23:10:08.800Z,4.03
2022-08-21T23:12:43.704Z,4.15
2022-08-21T23:15:18.159Z,4.35
2022-08-21T23:17:53.788Z,4.03
2022-08-21T23:20:29.517Z,3.65
2022-08-21T23:23:11.028Z,3.75
2022-08-21T23:25:52.849Z,4.72
2022-08-21T23:28:37.905Z,3.85
2022-08-21T23:31:28.407Z,3.88
2022-08-21T23:34:05.867Z,3.72
2022-08-21T23:36:59.776Z,3.72
2022-08-21T23:39:51.663Z,3.42
2022-08-21T23:42:37.889Z,3.17
2022-08-21T23:45:17.815Z,3.60
2022-08-21T23:47:56.120Z,4.63
2022-08-21T23:50:30.838Z,3.88
2022-08-21T23:53:13.136Z,3.33
2022-08-21T23:55:55.118Z,3.92
2022-08-21T23:58:39.841Z,3.65
